sensor_id;sensor_type;location;lat;lon;timestamp;P1;durP1;ratioP1;P2;durP2;ratioP2
47930;SDS011;33697;51.520;9.950;2022-07-06T00:01:21;3.92;;;0.30;;
47930;SDS011;33697;51.520;9.950;2022-07-06T00:03:48;3.53;;;0.40;;
47930;SDS011;33697;51.520;9.950;2022-07-06T00:06:20;0.55;;;0.10;;
47930;SDS011;33697;51.520;9.950;2022-07-06T00:08:47;6.40;;;0.50;;
47930;SDS011;33697;51.520;9.950;2022-07-06T00:11:13;3.70;;;0.40;;
47930;SDS011;33697;51.520;9.950;2022-07-06T00:13:39;2.38;;;0.50;;
47930;SDS011;33697;51.520;9.950;2022-07-06T00:16:06;2.53;;;0.50;;
47930;SDS011;33697;51.520;9.950;2022-07-06T00:18:32;5.53;;;0.57;;
47930;SDS011;33697;51.520;9.950;2022-07-06T00:20:59;2.53;;;0.32;;
47930;SDS011;33697;51.520;9.950;2022-07-06T00:23:25;2.50;;;0.80;;
47930;SDS011;33697;51.520;9.950;2022-07-06T00:25:51;3.40;;;0.40;;
47930;SDS011;33697;51.520;9.950;2022-07-06T00:28:18;2.45;;;0.60;;
47930;SDS011;33697;51.520;9.950;2022-07-06T00:30:44;2.30;;;0.60;;
47930;SDS011;33697;51.520;9.950;2022-07-06T00:33:11;2.42;;;0.52;;
47930;SDS011;33697;51.520;9.950;2022-07-06T00:35:37;1.90;;;0.40;;
47930;SDS011;33697;51.520;9.950;2022-07-06T00:38:03;2.08;;;0.80;;
47930;SDS011;33697;51.520;9.950;2022-07-06T00:40:30;1.98;;;0.35;;
47930;SDS011;33697;51.520;9.950;2022-07-06T00:42:56;5.03;;;1.48;;
47930;SDS011;33697;51.520;9.950;2022-07-06T00:45:22;1.25;;;0.32;;
47930;SDS011;33697;51.520;9.950;2022-07-06T00:47:49;1.17;;;0.57;;
47930;SDS011;33697;51.520;9.950;2022-07-06T00:50:16;5.80;;;0.35;;
47930;SDS011;33697;51.520;9.950;2022-07-06T00:52:50;5.72;;;0.50;;
47930;SDS011;33697;51.520;9.950;2022-07-06T00:55:18;1.85;;;0.30;;
47930;SDS011;33697;51.520;9.950;2022-07-06T00:57:45;3.05;;;0.63;;
47930;SDS011;33697;51.520;9.950;2022-07-06T01:00:13;1.00;;;0.20;;
47930;SDS011;33697;51.520;9.950;2022-07-06T01:02:40;5.57;;;0.73;;
47930;SDS011;33697;51.520;9.950;2022-07-06T01:05:07;2.35;;;0.75;;
47930;SDS011;33697;51.520;9.950;2022-07-06T01:07:34;2.95;;;1.17;;
47930;SDS011;33697;51.520;9.950;2022-07-06T01:10:02;2.97;;;0.85;;
47930;SDS011;33697;51.520;9.950;2022-07-06T01:12:28;2.45;;;0.77;;
47930;SDS011;33697;51.520;9.950;2022-07-06T01:14:54;2.83;;;0.35;;
47930;SDS011;33697;51.520;9.950;2022-07-06T01:17:21;1.75;;;0.50;;
47930;SDS011;33697;51.520;9.950;2022-07-06T01:19:48;4.20;;;1.10;;
47930;SDS011;33697;51.520;9.950;2022-07-06T01:22:14;4.32;;;0.73;;
47930;SDS011;33697;51.520;9.950;2022-07-06T01:24:41;1.00;;;0.50;;
47930;SDS011;33697;51.520;9.950;2022-07-06T01:27:07;3.00;;;0.85;;
47930;SDS011;33697;51.520;9.950;2022-07-06T01:29:34;3.38;;;0.65;;
47930;SDS011;33697;51.520;9.950;2022-07-06T01:32:00;5.28;;;0.85;;
47930;SDS011;33697;51.520;9.950;2022-07-06T01:34:27;3.90;;;0.50;;
47930;SDS011;33697;51.520;9.950;2022-07-06T01:36:53;3.33;;;0.60;;
47930;SDS011;33697;51.520;9.950;2022-07-06T01:39:20;1.25;;;0.50;;
47930;SDS011;33697;51.520;9.950;2022-07-06T01:41:47;5.13;;;0.70;;
47930;SDS011;33697;51.520;9.950;2022-07-06T01:44:13;7.07;;;0.50;;
47930;SDS011;33697;51.520;9.950;2022-07-06T01:46:39;4.10;;;1.00;;
47930;SDS011;33697;51.520;9.950;2022-07-06T01:49:06;6.13;;;1.02;;
47930;SDS011;33697;51.520;9.950;2022-07-06T01:51:32;3.35;;;0.90;;
47930;SDS011;33697;51.520;9.950;2022-07-06T01:53:59;2.35;;;0.47;;
47930;SDS011;33697;51.520;9.950;2022-07-06T01:56:25;1.80;;;0.52;;
47930;SDS011;33697;51.520;9.950;2022-07-06T01:58:51;3.55;;;0.90;;
47930;SDS011;33697;51.520;9.950;2022-07-06T02:01:18;2.50;;;0.82;;
47930;SDS011;33697;51.520;9.950;2022-07-06T02:03:45;4.88;;;1.48;;
47930;SDS011;33697;51.520;9.950;2022-07-06T02:06:12;4.45;;;1.02;;
47930;SDS011;33697;51.520;9.950;2022-07-06T02:08:39;3.40;;;1.02;;
47930;SDS011;33697;51.520;9.950;2022-07-06T02:11:06;5.80;;;0.88;;
47930;SDS011;33697;51.520;9.950;2022-07-06T02:13:33;7.30;;;0.70;;
47930;SDS011;33697;51.520;9.950;2022-07-06T02:15:59;6.85;;;1.38;;
47930;SDS011;33697;51.520;9.950;2022-07-06T02:18:26;2.42;;;0.85;;
47930;SDS011;33697;51.520;9.950;2022-07-06T02:20:53;5.50;;;1.35;;
47930;SDS011;33697;51.520;9.950;2022-07-06T02:23:19;6.93;;;1.45;;
47930;SDS011;33697;51.520;9.950;2022-07-06T02:25:46;9.23;;;1.20;;
47930;SDS011;33697;51.520;9.950;2022-07-06T02:28:12;5.70;;;2.28;;
47930;SDS011;33697;51.520;9.950;2022-07-06T02:30:38;5.13;;;1.15;;
47930;SDS011;33697;51.520;9.950;2022-07-06T02:33:05;5.13;;;0.82;;
47930;SDS011;33697;51.520;9.950;2022-07-06T02:35:31;4.57;;;1.00;;
47930;SDS011;33697;51.520;9.950;2022-07-06T02:37:57;2.75;;;0.57;;
47930;SDS011;33697;51.520;9.950;2022-07-06T02:40:24;3.42;;;1.10;;
47930;SDS011;33697;51.520;9.950;2022-07-06T02:42:50;5.57;;;1.00;;
47930;SDS011;33697;51.520;9.950;2022-07-06T02:45:16;1.17;;;0.60;;
47930;SDS011;33697;51.520;9.950;2022-07-06T02:47:43;11.82;;;2.45;;
47930;SDS011;33697;51.520;9.950;2022-07-06T02:50:09;5.97;;;1.30;;
47930;SDS011;33697;51.520;9.950;2022-07-06T02:52:35;3.58;;;1.00;;
47930;SDS011;33697;51.520;9.950;2022-07-06T02:55:06;4.35;;;0.60;;
47930;SDS011;33697;51.520;9.950;2022-07-06T02:57:33;4.00;;;0.90;;
47930;SDS011;33697;51.520;9.950;2022-07-06T02:59:59;1.58;;;0.80;;
47930;SDS011;33697;51.520;9.950;2022-07-06T03:02:25;5.97;;;1.83;;
47930;SDS011;33697;51.520;9.950;2022-07-06T03:04:52;2.92;;;0.70;;
47930;SDS011;33697;51.520;9.950;2022-07-06T03:07:18;2.60;;;0.90;;
47930;SDS011;33697;51.520;9.950;2022-07-06T03:09:44;5.00;;;1.33;;
47930;SDS011;33697;51.520;9.950;2022-07-06T03:12:11;2.28;;;0.63;;
47930;SDS011;33697;51.520;9.950;2022-07-06T03:14:37;4.95;;;1.20;;
47930;SDS011;33697;51.520;9.950;2022-07-06T03:17:04;7.82;;;1.45;;
47930;SDS011;33697;51.520;9.950;2022-07-06T03:19:30;4.20;;;1.33;;
47930;SDS011;33697;51.520;9.950;2022-07-06T03:21:56;4.03;;;1.50;;
47930;SDS011;33697;51.520;9.950;2022-07-06T03:24:23;3.42;;;1.15;;
47930;SDS011;33697;51.520;9.950;2022-07-06T03:26:49;2.75;;;0.85;;
47930;SDS011;33697;51.520;9.950;2022-07-06T03:29:15;5.72;;;1.10;;
47930;SDS011;33697;51.520;9.950;2022-07-06T03:31:42;3.63;;;1.13;;
47930;SDS011;33697;51.520;9.950;2022-07-06T03:34:08;6.38;;;1.10;;
47930;SDS011;33697;51.520;9.950;2022-07-06T03:36:34;5.10;;;1.17;;
47930;SDS011;33697;51.520;9.950;2022-07-06T03:39:04;5.47;;;0.93;;
47930;SDS011;33697;51.520;9.950;2022-07-06T03:41:31;3.92;;;1.00;;
47930;SDS011;33697;51.520;9.950;2022-07-06T03:43:58;2.75;;;1.05;;
47930;SDS011;33697;51.520;9.950;2022-07-06T03:46:25;1.98;;;1.00;;
47930;SDS011;33697;51.520;9.950;2022-07-06T03:48:52;2.53;;;1.30;;
47930;SDS011;33697;51.520;9.950;2022-07-06T03:51:19;1.67;;;1.00;;
47930;SDS011;33697;51.520;9.950;2022-07-06T03:53:45;5.35;;;1.45;;
47930;SDS011;33697;51.520;9.950;2022-07-06T03:56:12;3.05;;;0.85;;
47930;SDS011;33697;51.520;9.950;2022-07-06T03:58:56;5.10;;;1.73;;
47930;SDS011;33697;51.520;9.950;2022-07-06T04:01:23;3.25;;;1.25;;
47930;SDS011;33697;51.520;9.950;2022-07-06T04:03:50;6.22;;;1.38;;
47930;SDS011;33697;51.520;9.950;2022-07-06T04:06:16;1.65;;;1.38;;
47930;SDS011;33697;51.520;9.950;2022-07-06T04:08:43;3.22;;;1.05;;
47930;SDS011;33697;51.520;9.950;2022-07-06T04:11:09;4.70;;;0.90;;
47930;SDS011;33697;51.520;9.950;2022-07-06T04:13:36;6.50;;;0.75;;
47930;SDS011;33697;51.520;9.950;2022-07-06T04:16:03;5.30;;;0.80;;
47930;SDS011;33697;51.520;9.950;2022-07-06T04:18:29;7.22;;;1.80;;
47930;SDS011;33697;51.520;9.950;2022-07-06T04:20:56;1.77;;;0.77;;
47930;SDS011;33697;51.520;9.950;2022-07-06T04:23:23;3.97;;;1.02;;
47930;SDS011;33697;51.520;9.950;2022-07-06T04:25:50;4.85;;;1.35;;
47930;SDS011;33697;51.520;9.950;2022-07-06T04:28:16;2.63;;;1.15;;
47930;SDS011;33697;51.520;9.950;2022-07-06T04:30:42;1.10;;;0.60;;
47930;SDS011;33697;51.520;9.950;2022-07-06T04:33:09;1.98;;;0.98;;
47930;SDS011;33697;51.520;9.950;2022-07-06T04:35:35;6.20;;;1.33;;
47930;SDS011;33697;51.520;9.950;2022-07-06T04:38:02;4.72;;;1.33;;
47930;SDS011;33697;51.520;9.950;2022-07-06T04:40:28;3.72;;;1.02;;
47930;SDS011;33697;51.520;9.950;2022-07-06T04:42:54;4.72;;;1.38;;
47930;SDS011;33697;51.520;9.950;2022-07-06T04:45:21;3.92;;;1.10;;
47930;SDS011;33697;51.520;9.950;2022-07-06T04:47:47;4.32;;;1.23;;
47930;SDS011;33697;51.520;9.950;2022-07-06T04:50:13;3.30;;;1.42;;
47930;SDS011;33697;51.520;9.950;2022-07-06T04:52:40;1.33;;;1.02;;
47930;SDS011;33697;51.520;9.950;2022-07-06T04:55:06;2.42;;;0.95;;
47930;SDS011;33697;51.520;9.950;2022-07-06T04:57:34;5.93;;;1.30;;
47930;SDS011;33697;51.520;9.950;2022-07-06T05:00:01;1.40;;;0.80;;
47930;SDS011;33697;51.520;9.950;2022-07-06T05:02:28;4.20;;;1.88;;
47930;SDS011;33697;51.520;9.950;2022-07-06T05:04:54;5.60;;;1.80;;
47930;SDS011;33697;51.520;9.950;2022-07-06T05:07:20;5.30;;;1.17;;
47930;SDS011;33697;51.520;9.950;2022-07-06T05:09:47;4.55;;;1.80;;
47930;SDS011;33697;51.520;9.950;2022-07-06T05:12:17;5.65;;;1.13;;
47930;SDS011;33697;51.520;9.950;2022-07-06T05:14:44;5.70;;;1.00;;
47930;SDS011;33697;51.520;9.950;2022-07-06T05:17:10;9.23;;;1.00;;
47930;SDS011;33697;51.520;9.950;2022-07-06T05:19:36;3.95;;;0.85;;
47930;SDS011;33697;51.520;9.950;2022-07-06T05:22:03;2.70;;;0.70;;
47930;SDS011;33697;51.520;9.950;2022-07-06T05:24:29;1.35;;;0.40;;
47930;SDS011;33697;51.520;9.950;2022-07-06T05:26:55;2.40;;;0.52;;
47930;SDS011;33697;51.520;9.950;2022-07-06T05:29:22;3.47;;;0.45;;
47930;SDS011;33697;51.520;9.950;2022-07-06T05:31:48;2.17;;;0.20;;
47930;SDS011;33697;51.520;9.950;2022-07-06T05:34:15;3.83;;;0.80;;
47930;SDS011;33697;51.520;9.950;2022-07-06T05:36:41;3.45;;;1.05;;
47930;SDS011;33697;51.520;9.950;2022-07-06T05:39:08;6.22;;;1.35;;
47930;SDS011;33697;51.520;9.950;2022-07-06T05:41:34;2.47;;;0.52;;
47930;SDS011;33697;51.520;9.950;2022-07-06T05:44:00;2.97;;;0.30;;
47930;SDS011;33697;51.520;9.950;2022-07-06T05:46:27;5.80;;;0.43;;
47930;SDS011;33697;51.520;9.950;2022-07-06T05:48:54;6.18;;;0.88;;
47930;SDS011;33697;51.520;9.950;2022-07-06T05:51:39;3.33;;;0.60;;
47930;SDS011;33697;51.520;9.950;2022-07-06T05:54:05;7.63;;;2.38;;
47930;SDS011;33697;51.520;9.950;2022-07-06T05:56:32;2.15;;;0.60;;
47930;SDS011;33697;51.520;9.950;2022-07-06T05:58:58;4.95;;;0.40;;
47930;SDS011;33697;51.520;9.950;2022-07-06T06:01:24;4.82;;;0.55;;
47930;SDS011;33697;51.520;9.950;2022-07-06T06:03:51;2.63;;;0.30;;
47930;SDS011;33697;51.520;9.950;2022-07-06T06:06:17;9.93;;;0.60;;
47930;SDS011;33697;51.520;9.950;2022-07-06T06:08:43;3.85;;;0.68;;
47930;SDS011;33697;51.520;9.950;2022-07-06T06:11:10;3.22;;;1.85;;
47930;SDS011;33697;51.520;9.950;2022-07-06T06:13:37;2.65;;;0.88;;
47930;SDS011;33697;51.520;9.950;2022-07-06T06:16:03;5.80;;;0.60;;
47930;SDS011;33697;51.520;9.950;2022-07-06T06:18:29;1.30;;;0.55;;
47930;SDS011;33697;51.520;9.950;2022-07-06T06:21:01;6.57;;;0.55;;
47930;SDS011;33697;51.520;9.950;2022-07-06T06:23:27;3.42;;;0.40;;
47930;SDS011;33697;51.520;9.950;2022-07-06T06:25:53;5.60;;;0.63;;
47930;SDS011;33697;51.520;9.950;2022-07-06T06:28:20;2.53;;;0.63;;
47930;SDS011;33697;51.520;9.950;2022-07-06T06:30:47;6.05;;;0.45;;
47930;SDS011;33697;51.520;9.950;2022-07-06T06:33:14;4.10;;;0.60;;
47930;SDS011;33697;51.520;9.950;2022-07-06T06:35:44;7.38;;;0.57;;
47930;SDS011;33697;51.520;9.950;2022-07-06T06:38:11;2.78;;;0.50;;
47930;SDS011;33697;51.520;9.950;2022-07-06T06:40:38;2.05;;;0.52;;
47930;SDS011;33697;51.520;9.950;2022-07-06T06:43:05;6.30;;;1.02;;
47930;SDS011;33697;51.520;9.950;2022-07-06T06:45:31;5.05;;;0.98;;
47930;SDS011;33697;51.520;9.950;2022-07-06T06:47:58;4.70;;;0.50;;
47930;SDS011;33697;51.520;9.950;2022-07-06T06:50:24;4.38;;;0.80;;
47930;SDS011;33697;51.520;9.950;2022-07-06T06:52:50;6.40;;;0.50;;
47930;SDS011;33697;51.520;9.950;2022-07-06T06:55:17;5.68;;;0.75;;
47930;SDS011;33697;51.520;9.950;2022-07-06T06:57:43;3.95;;;0.85;;
47930;SDS011;33697;51.520;9.950;2022-07-06T07:00:10;5.95;;;0.43;;
47930;SDS011;33697;51.520;9.950;2022-07-06T07:02:37;7.25;;;1.00;;
47930;SDS011;33697;51.520;9.950;2022-07-06T07:05:04;3.17;;;0.28;;
47930;SDS011;33697;51.520;9.950;2022-07-06T07:07:31;3.40;;;0.50;;
47930;SDS011;33697;51.520;9.950;2022-07-06T07:09:59;8.98;;;0.60;;
47930;SDS011;33697;51.520;9.950;2022-07-06T07:12:25;4.47;;;1.10;;
47930;SDS011;33697;51.520;9.950;2022-07-06T07:14:51;2.33;;;0.60;;
47930;SDS011;33697;51.520;9.950;2022-07-06T07:17:18;1.58;;;0.60;;
47930;SDS011;33697;51.520;9.950;2022-07-06T07:19:44;3.03;;;0.40;;
47930;SDS011;33697;51.520;9.950;2022-07-06T07:22:10;2.50;;;0.30;;
47930;SDS011;33697;51.520;9.950;2022-07-06T07:24:37;3.42;;;0.28;;
47930;SDS011;33697;51.520;9.950;2022-07-06T07:27:03;4.28;;;0.73;;
47930;SDS011;33697;51.520;9.950;2022-07-06T07:29:31;5.13;;;0.30;;
47930;SDS011;33697;51.520;9.950;2022-07-06T07:31:57;8.52;;;1.33;;
47930;SDS011;33697;51.520;9.950;2022-07-06T07:34:23;3.25;;;0.30;;
47930;SDS011;33697;51.520;9.950;2022-07-06T07:36:50;2.45;;;0.93;;
47930;SDS011;33697;51.520;9.950;2022-07-06T07:39:16;4.22;;;0.32;;
47930;SDS011;33697;51.520;9.950;2022-07-06T07:41:42;7.43;;;0.40;;
47930;SDS011;33697;51.520;9.950;2022-07-06T07:44:09;2.90;;;0.20;;
47930;SDS011;33697;51.520;9.950;2022-07-06T07:46:35;3.83;;;1.08;;
47930;SDS011;33697;51.520;9.950;2022-07-06T07:49:02;1.10;;;0.10;;
47930;SDS011;33697;51.520;9.950;2022-07-06T07:51:28;5.65;;;0.75;;
47930;SDS011;33697;51.520;9.950;2022-07-06T07:53:54;4.00;;;0.13;;
47930;SDS011;33697;51.520;9.950;2022-07-06T07:56:21;2.95;;;0.35;;
47930;SDS011;33697;51.520;9.950;2022-07-06T07:58:47;2.30;;;0.17;;
47930;SDS011;33697;51.520;9.950;2022-07-06T08:01:14;2.72;;;0.30;;
47930;SDS011;33697;51.520;9.950;2022-07-06T08:03:41;3.65;;;0.52;;
47930;SDS011;33697;51.520;9.950;2022-07-06T08:06:07;0.73;;;0.00;;
47930;SDS011;33697;51.520;9.950;2022-07-06T08:08:33;3.58;;;0.30;;
47930;SDS011;33697;51.520;9.950;2022-07-06T08:11:00;8.43;;;0.38;;
47930;SDS011;33697;51.520;9.950;2022-07-06T08:13:44;4.20;;;0.30;;
47930;SDS011;33697;51.520;9.950;2022-07-06T08:16:11;3.65;;;0.10;;
47930;SDS011;33697;51.520;9.950;2022-07-06T08:18:37;1.23;;;0.10;;
47930;SDS011;33697;51.520;9.950;2022-07-06T08:21:04;1.88;;;0.22;;
47930;SDS011;33697;51.520;9.950;2022-07-06T08:23:50;3.17;;;0.22;;
47930;SDS011;33697;51.520;9.950;2022-07-06T08:26:16;1.52;;;0.75;;
47930;SDS011;33697;51.520;9.950;2022-07-06T08:28:43;3.33;;;0.43;;
47930;SDS011;33697;51.520;9.950;2022-07-06T08:31:10;2.55;;;0.15;;
47930;SDS011;33697;51.520;9.950;2022-07-06T08:33:56;1.52;;;0.00;;
47930;SDS011;33697;51.520;9.950;2022-07-06T08:36:22;3.35;;;0.08;;
47930;SDS011;33697;51.520;9.950;2022-07-06T08:38:49;1.77;;;0.25;;
47930;SDS011;33697;51.520;9.950;2022-07-06T08:41:16;1.55;;;0.00;;
47930;SDS011;33697;51.520;9.950;2022-07-06T08:43:50;1.77;;;0.00;;
47930;SDS011;33697;51.520;9.950;2022-07-06T08:46:17;3.33;;;0.17;;
47930;SDS011;33697;51.520;9.950;2022-07-06T08:48:44;1.90;;;0.10;;
47930;SDS011;33697;51.520;9.950;2022-07-06T08:51:12;2.45;;;0.47;;
47930;SDS011;33697;51.520;9.950;2022-07-06T08:53:40;1.85;;;0.10;;
47930;SDS011;33697;51.520;9.950;2022-07-06T08:56:07;1.75;;;0.10;;
47930;SDS011;33697;51.520;9.950;2022-07-06T08:58:34;1.17;;;0.00;;
47930;SDS011;33697;51.520;9.950;2022-07-06T09:01:00;1.70;;;0.43;;
47930;SDS011;33697;51.520;9.950;2022-07-06T09:03:27;1.05;;;0.20;;
47930;SDS011;33697;51.520;9.950;2022-07-06T09:05:56;1.50;;;0.10;;
47930;SDS011;33697;51.520;9.950;2022-07-06T09:08:24;2.83;;;0.10;;
47930;SDS011;33697;51.520;9.950;2022-07-06T09:10:53;1.40;;;0.00;;
47930;SDS011;33697;51.520;9.950;2022-07-06T09:13:19;1.77;;;0.10;;
47930;SDS011;33697;51.520;9.950;2022-07-06T09:15:45;4.00;;;0.15;;
47930;SDS011;33697;51.520;9.950;2022-07-06T09:18:12;2.67;;;0.20;;
47930;SDS011;33697;51.520;9.950;2022-07-06T09:20:42;1.33;;;0.00;;
47930;SDS011;33697;51.520;9.950;2022-07-06T09:23:09;1.35;;;0.00;;
47930;SDS011;33697;51.520;9.950;2022-07-06T09:25:49;5.38;;;0.13;;
47930;SDS011;33697;51.520;9.950;2022-07-06T09:28:16;0.75;;;0.00;;
47930;SDS011;33697;51.520;9.950;2022-07-06T09:30:42;1.75;;;0.10;;
47930;SDS011;33697;51.520;9.950;2022-07-06T09:33:10;1.75;;;0.00;;
47930;SDS011;33697;51.520;9.950;2022-07-06T09:35:38;1.88;;;0.10;;
47930;SDS011;33697;51.520;9.950;2022-07-06T09:38:14;6.43;;;0.30;;
47930;SDS011;33697;51.520;9.950;2022-07-06T09:40:41;0.88;;;0.00;;
47930;SDS011;33697;51.520;9.950;2022-07-06T09:43:13;0.82;;;0.00;;
47930;SDS011;33697;51.520;9.950;2022-07-06T09:45:41;1.00;;;0.20;;
47930;SDS011;33697;51.520;9.950;2022-07-06T09:48:09;2.10;;;0.35;;
47930;SDS011;33697;51.520;9.950;2022-07-06T09:50:41;3.70;;;0.00;;
47930;SDS011;33697;51.520;9.950;2022-07-06T09:53:07;5.05;;;0.10;;
47930;SDS011;33697;51.520;9.950;2022-07-06T09:55:33;2.15;;;0.03;;
47930;SDS011;33697;51.520;9.950;2022-07-06T09:58:00;1.23;;;0.40;;
47930;SDS011;33697;51.520;9.950;2022-07-06T10:00:26;2.58;;;0.10;;
47930;SDS011;33697;51.520;9.950;2022-07-06T10:02:53;4.35;;;0.20;;
47930;SDS011;33697;51.520;9.950;2022-07-06T10:05:21;2.47;;;0.30;;
47930;SDS011;33697;51.520;9.950;2022-07-06T10:07:53;2.80;;;0.10;;
47930;SDS011;33697;51.520;9.950;2022-07-06T10:10:20;1.83;;;0.00;;
47930;SDS011;33697;51.520;9.950;2022-07-06T10:12:48;2.75;;;0.20;;
47930;SDS011;33697;51.520;9.950;2022-07-06T10:15:16;4.50;;;0.55;;
47930;SDS011;33697;51.520;9.950;2022-07-06T10:17:44;1.63;;;0.10;;
47930;SDS011;33697;51.520;9.950;2022-07-06T10:20:11;2.33;;;0.15;;
47930;SDS011;33697;51.520;9.950;2022-07-06T10:22:37;4.13;;;1.00;;
47930;SDS011;33697;51.520;9.950;2022-07-06T10:25:05;1.50;;;0.10;;
47930;SDS011;33697;51.520;9.950;2022-07-06T10:27:32;3.13;;;0.40;;
47930;SDS011;33697;51.520;9.950;2022-07-06T10:29:58;2.30;;;0.00;;
47930;SDS011;33697;51.520;9.950;2022-07-06T10:32:25;1.83;;;0.32;;
47930;SDS011;33697;51.520;9.950;2022-07-06T10:34:52;1.92;;;0.13;;
47930;SDS011;33697;51.520;9.950;2022-07-06T10:37:25;1.80;;;0.63;;
47930;SDS011;33697;51.520;9.950;2022-07-06T10:39:52;1.67;;;0.10;;
47930;SDS011;33697;51.520;9.950;2022-07-06T10:42:41;0.47;;;0.00;;
47930;SDS011;33697;51.520;9.950;2022-07-06T10:45:08;4.65;;;0.10;;
47930;SDS011;33697;51.520;9.950;2022-07-06T10:47:34;3.03;;;0.20;;
47930;SDS011;33697;51.520;9.950;2022-07-06T10:50:02;2.80;;;0.10;;
47930;SDS011;33697;51.520;9.950;2022-07-06T10:55:27;3.15;;;0.28;;
47930;SDS011;33697;51.520;9.950;2022-07-06T10:57:55;2.38;;;0.00;;
47930;SDS011;33697;51.520;9.950;2022-07-06T11:00:21;2.50;;;0.00;;
47930;SDS011;33697;51.520;9.950;2022-07-06T11:02:48;1.65;;;0.10;;
47930;SDS011;33697;51.520;9.950;2022-07-06T11:08:19;2.40;;;0.00;;
47930;SDS011;33697;51.520;9.950;2022-07-06T11:10:45;4.28;;;0.25;;
47930;SDS011;33697;51.520;9.950;2022-07-06T11:13:24;4.07;;;0.08;;
47930;SDS011;33697;51.520;9.950;2022-07-06T11:15:51;0.70;;;0.10;;
47930;SDS011;33697;51.520;9.950;2022-07-06T11:18:20;1.95;;;0.10;;
47930;SDS011;33697;51.520;9.950;2022-07-06T11:24:01;3.58;;;0.00;;
47930;SDS011;33697;51.520;9.950;2022-07-06T11:26:28;2.40;;;0.10;;
47930;SDS011;33697;51.520;9.950;2022-07-06T11:29:04;3.95;;;0.30;;
47930;SDS011;33697;51.520;9.950;2022-07-06T11:31:33;2.55;;;0.00;;
47930;SDS011;33697;51.520;9.950;2022-07-06T11:33:59;2.33;;;0.03;;
47930;SDS011;33697;51.520;9.950;2022-07-06T11:36:26;2.60;;;0.10;;
47930;SDS011;33697;51.520;9.950;2022-07-06T11:39:00;1.45;;;0.03;;
47930;SDS011;33697;51.520;9.950;2022-07-06T11:41:26;1.45;;;0.10;;
47930;SDS011;33697;51.520;9.950;2022-07-06T11:43:53;3.78;;;0.10;;
47930;SDS011;33697;51.520;9.950;2022-07-06T11:46:23;2.05;;;0.00;;
47930;SDS011;33697;51.520;9.950;2022-07-06T11:48:50;2.25;;;0.00;;
47930;SDS011;33697;51.520;9.950;2022-07-06T11:51:17;1.35;;;0.00;;
47930;SDS011;33697;51.520;9.950;2022-07-06T11:53:44;3.13;;;0.13;;
47930;SDS011;33697;51.520;9.950;2022-07-06T11:56:15;0.20;;;0.00;;
47930;SDS011;33697;51.520;9.950;2022-07-06T11:58:42;1.48;;;0.00;;
47930;SDS011;33697;51.520;9.950;2022-07-06T12:01:10;0.25;;;0.00;;
47930;SDS011;33697;51.520;9.950;2022-07-06T12:03:37;0.70;;;0.00;;
47930;SDS011;33697;51.520;9.950;2022-07-06T12:06:04;1.58;;;0.03;;
47930;SDS011;33697;51.520;9.950;2022-07-06T12:08:31;3.40;;;0.28;;
47930;SDS011;33697;51.520;9.950;2022-07-06T12:10:59;4.25;;;0.00;;
47930;SDS011;33697;51.520;9.950;2022-07-06T12:13:26;4.30;;;1.08;;
47930;SDS011;33697;51.520;9.950;2022-07-06T12:15:53;0.73;;;0.20;;
47930;SDS011;33697;51.520;9.950;2022-07-06T12:18:20;6.32;;;0.22;;
47930;SDS011;33697;51.520;9.950;2022-07-06T12:20:46;3.00;;;0.00;;
47930;SDS011;33697;51.520;9.950;2022-07-06T12:23:12;0.95;;;0.00;;
47930;SDS011;33697;51.520;9.950;2022-07-06T12:25:39;1.27;;;0.00;;
47930;SDS011;33697;51.520;9.950;2022-07-06T12:28:05;0.82;;;0.00;;
47930;SDS011;33697;51.520;9.950;2022-07-06T12:30:33;1.55;;;0.00;;
47930;SDS011;33697;51.520;9.950;2022-07-06T12:33:15;0.00;;;0.00;;
47930;SDS011;33697;51.520;9.950;2022-07-06T12:35:43;3.67;;;0.00;;
47930;SDS011;33697;51.520;9.950;2022-07-06T12:38:10;1.23;;;0.00;;
47930;SDS011;33697;51.520;9.950;2022-07-06T12:40:36;3.35;;;0.00;;
47930;SDS011;33697;51.520;9.950;2022-07-06T12:43:04;4.50;;;0.00;;
47930;SDS011;33697;51.520;9.950;2022-07-06T12:45:31;1.38;;;0.00;;
47930;SDS011;33697;51.520;9.950;2022-07-06T12:48:04;2.10;;;0.32;;
47930;SDS011;33697;51.520;9.950;2022-07-06T12:50:35;2.08;;;0.00;;
47930;SDS011;33697;51.520;9.950;2022-07-06T12:53:02;9.02;;;0.40;;
47930;SDS011;33697;51.520;9.950;2022-07-06T12:55:29;1.50;;;0.00;;
47930;SDS011;33697;51.520;9.950;2022-07-06T12:57:56;2.55;;;0.30;;
47930;SDS011;33697;51.520;9.950;2022-07-06T13:00:23;1.42;;;0.03;;
47930;SDS011;33697;51.520;9.950;2022-07-06T13:02:51;1.50;;;0.00;;
47930;SDS011;33697;51.520;9.950;2022-07-06T13:05:37;2.00;;;0.00;;
47930;SDS011;33697;51.520;9.950;2022-07-06T13:08:05;1.23;;;0.00;;
47930;SDS011;33697;51.520;9.950;2022-07-06T13:10:31;2.03;;;0.00;;
47930;SDS011;33697;51.520;9.950;2022-07-06T13:12:59;2.85;;;0.38;;
47930;SDS011;33697;51.520;9.950;2022-07-06T13:15:26;1.13;;;0.00;;
47930;SDS011;33697;51.520;9.950;2022-07-06T13:17:52;2.60;;;0.00;;
47930;SDS011;33697;51.520;9.950;2022-07-06T13:20:18;1.55;;;0.00;;
47930;SDS011;33697;51.520;9.950;2022-07-06T13:22:45;0.40;;;0.10;;
47930;SDS011;33697;51.520;9.950;2022-07-06T13:25:12;0.43;;;0.00;;
47930;SDS011;33697;51.520;9.950;2022-07-06T13:27:39;1.42;;;0.00;;
47930;SDS011;33697;51.520;9.950;2022-07-06T13:30:05;0.98;;;0.05;;
47930;SDS011;33697;51.520;9.950;2022-07-06T13:32:32;1.23;;;0.00;;
47930;SDS011;33697;51.520;9.950;2022-07-06T13:34:59;3.20;;;0.10;;
47930;SDS011;33697;51.520;9.950;2022-07-06T13:37:25;1.98;;;0.00;;
47930;SDS011;33697;51.520;9.950;2022-07-06T13:39:51;1.95;;;0.10;;
47930;SDS011;33697;51.520;9.950;2022-07-06T13:42:18;2.05;;;0.00;;
47930;SDS011;33697;51.520;9.950;2022-07-06T13:44:44;1.80;;;0.08;;
47930;SDS011;33697;51.520;9.950;2022-07-06T13:47:10;3.85;;;1.20;;
47930;SDS011;33697;51.520;9.950;2022-07-06T13:49:37;0.60;;;0.10;;
47930;SDS011;33697;51.520;9.950;2022-07-06T13:52:03;2.20;;;0.10;;
47930;SDS011;33697;51.520;9.950;2022-07-06T13:54:31;2.00;;;0.10;;
47930;SDS011;33697;51.520;9.950;2022-07-06T13:56:57;4.00;;;0.20;;
47930;SDS011;33697;51.520;9.950;2022-07-06T13:59:23;5.88;;;0.52;;
47930;SDS011;33697;51.520;9.950;2022-07-06T14:01:50;3.33;;;0.00;;
47930;SDS011;33697;51.520;9.950;2022-07-06T14:04:16;0.93;;;0.00;;
47930;SDS011;33697;51.520;9.950;2022-07-06T14:06:43;3.83;;;0.13;;
47930;SDS011;33697;51.520;9.950;2022-07-06T14:09:09;0.25;;;0.10;;
47930;SDS011;33697;51.520;9.950;2022-07-06T14:11:35;2.92;;;0.00;;
47930;SDS011;33697;51.520;9.950;2022-07-06T14:14:02;3.72;;;0.28;;
47930;SDS011;33697;51.520;9.950;2022-07-06T14:16:28;0.60;;;0.00;;
47930;SDS011;33697;51.520;9.950;2022-07-06T14:18:55;6.78;;;0.22;;
47930;SDS011;33697;51.520;9.950;2022-07-06T14:21:21;3.97;;;0.80;;
47930;SDS011;33697;51.520;9.950;2022-07-06T14:23:47;4.05;;;0.05;;
47930;SDS011;33697;51.520;9.950;2022-07-06T14:26:14;2.60;;;0.00;;
47930;SDS011;33697;51.520;9.950;2022-07-06T14:28:41;2.80;;;0.15;;
47930;SDS011;33697;51.520;9.950;2022-07-06T14:31:08;2.10;;;0.20;;
47930;SDS011;33697;51.520;9.950;2022-07-06T14:33:34;1.05;;;0.50;;
47930;SDS011;33697;51.520;9.950;2022-07-06T14:36:00;1.42;;;0.05;;
47930;SDS011;33697;51.520;9.950;2022-07-06T14:38:27;2.45;;;0.08;;
47930;SDS011;33697;51.520;9.950;2022-07-06T14:40:54;1.98;;;0.00;;
47930;SDS011;33697;51.520;9.950;2022-07-06T14:43:21;1.08;;;0.10;;
47930;SDS011;33697;51.520;9.950;2022-07-06T14:45:47;1.02;;;0.00;;
47930;SDS011;33697;51.520;9.950;2022-07-06T14:48:14;1.95;;;0.17;;
47930;SDS011;33697;51.520;9.950;2022-07-06T14:50:40;1.75;;;0.00;;
47930;SDS011;33697;51.520;9.950;2022-07-06T14:53:06;2.60;;;0.10;;
47930;SDS011;33697;51.520;9.950;2022-07-06T14:55:33;1.95;;;0.00;;
47930;SDS011;33697;51.520;9.950;2022-07-06T14:58:00;2.38;;;0.30;;